createdAt,value
2019-03-01T00:00:46.540Z,3.20
2019-03-01T00:03:14.045Z,3.20
2019-03-01T00:05:42.878Z,4.03
2019-03-01T00:08:11.375Z,3.20
2019-03-01T00:10:56.641Z,4.00
2019-03-01T00:13:31.366Z,4.07
2019-03-01T00:16:15.198Z,4.50
2019-03-01T00:18:49.674Z,5.40
2019-03-01T00:21:18.718Z,4.90
2019-03-01T00:23:59.338Z,4.93
2019-03-01T00:26:34.046Z,5.20
2019-03-01T00:29:11.814Z,5.13
2019-03-01T00:31:46.577Z,4.80
2019-03-01T00:34:18.270Z,4.97
2019-03-01T00:36:47.102Z,5.10
2019-03-01T00:39:15.906Z,5.27
2019-03-01T00:41:47.422Z,4.80
2019-03-01T00:44:32.665Z,4.97
2019-03-01T00:46:59.942Z,4.70
2019-03-01T00:49:27.185Z,4.50
2019-03-01T00:51:54.458Z,4.87
2019-03-01T00:54:21.706Z,5.73
2019-03-01T00:56:49.002Z,5.23
2019-03-01T00:59:16.245Z,5.00
2019-03-01T01:01:43.514Z,5.40
2019-03-01T01:04:10.851Z,5.03
2019-03-01T01:06:38.090Z,5.07
2019-03-01T01:09:06.335Z,4.90
2019-03-01T01:11:33.606Z,5.43
2019-03-01T01:14:01.114Z,4.73
2019-03-01T01:16:28.630Z,5.43
2019-03-01T01:18:55.983Z,5.23
2019-03-01T01:21:23.254Z,4.70
2019-03-01T01:23:50.501Z,4.90
2019-03-01T01:26:17.842Z,5.67
2019-03-01T01:28:45.098Z,4.70
2019-03-01T01:31:12.359Z,4.30
2019-03-01T01:33:39.633Z,4.50
2019-03-01T01:36:06.907Z,3.97
2019-03-01T01:38:34.269Z,4.10
2019-03-01T01:41:01.579Z,3.80
2019-03-01T01:43:28.866Z,4.53
2019-03-01T01:45:56.102Z,4.10
2019-03-01T01:48:23.378Z,4.93
2019-03-01T01:50:50.623Z,3.97
2019-03-01T01:53:17.894Z,3.97
2019-03-01T01:55:45.165Z,3.80
2019-03-01T01:58:12.441Z,4.40
2019-03-01T02:00:39.685Z,3.70
2019-03-01T02:03:07.026Z,3.93
2019-03-01T02:05:34.339Z,3.60
2019-03-01T02:08:01.610Z,3.87
2019-03-01T02:10:28.860Z,4.10
2019-03-01T02:12:56.125Z,4.03
2019-03-01T02:15:23.394Z,3.20
2019-03-01T02:17:50.638Z,3.53
2019-03-01T02:20:17.917Z,4.40
2019-03-01T02:22:45.154Z,3.83
2019-03-01T02:25:12.435Z,3.57
2019-03-01T02:27:39.679Z,3.53
2019-03-01T02:30:08.496Z,4.10
2019-03-01T02:32:39.594Z,3.60
2019-03-01T02:35:08.506Z,4.03
2019-03-01T02:37:35.773Z,3.53
2019-03-01T02:40:04.582Z,3.50
2019-03-01T02:42:31.819Z,3.57
2019-03-01T02:44:59.094Z,3.70
2019-03-01T02:47:26.355Z,3.73
2019-03-01T02:49:53.594Z,4.13
2019-03-01T02:52:20.942Z,3.97
2019-03-01T02:54:48.209Z,4.40
2019-03-01T02:57:15.457Z,4.23
2019-03-01T02:59:42.733Z,4.27
2019-03-01T03:02:09.983Z,3.67
2019-03-01T03:04:37.254Z,3.80
2019-03-01T03:07:09.109Z,3.60
2019-03-01T03:09:36.382Z,3.70
2019-03-01T03:12:03.719Z,3.70
2019-03-01T03:14:30.954Z,3.70
2019-03-01T03:16:58.295Z,3.63
2019-03-01T03:19:25.587Z,3.80
2019-03-01T03:21:52.896Z,3.57
2019-03-01T03:24:20.167Z,3.53
2019-03-01T03:26:48.567Z,3.90
2019-03-01T03:29:16.074Z,3.90
2019-03-01T03:31:43.419Z,4.00
2019-03-01T03:34:10.855Z,3.50
2019-03-01T03:36:38.491Z,3.53
2019-03-01T03:39:06.104Z,3.50
2019-03-01T03:41:33.378Z,3.47
2019-03-01T03:44:00.624Z,3.77
2019-03-01T03:46:27.868Z,3.70
2019-03-01T03:48:55.147Z,4.27
2019-03-01T03:51:22.422Z,3.53
2019-03-01T03:53:49.669Z,3.60
2019-03-01T03:56:17.299Z,3.50
2019-03-01T03:58:44.593Z,3.10
2019-03-01T04:01:11.876Z,3.60
2019-03-01T04:03:39.130Z,3.43
2019-03-01T04:06:06.403Z,4.10
2019-03-01T04:08:34.042Z,3.77
2019-03-01T04:11:01.295Z,3.70
2019-03-01T04:13:28.569Z,3.80
2019-03-01T04:15:55.815Z,3.50
2019-03-01T04:18:23.104Z,3.97
2019-03-01T04:20:50.354Z,3.17
2019-03-01T04:23:17.600Z,3.53
2019-03-01T04:25:44.869Z,3.63
2019-03-01T04:28:12.119Z,3.53
2019-03-01T04:30:39.476Z,4.10
2019-03-01T04:33:06.782Z,3.50
2019-03-01T04:35:34.051Z,3.80
2019-03-01T04:38:01.296Z,3.50
2019-03-01T04:40:28.565Z,3.63
2019-03-01T04:42:55.812Z,2.73
2019-03-01T04:45:23.086Z,3.23
2019-03-01T04:47:50.591Z,3.50
2019-03-01T04:50:18.111Z,3.60
2019-03-01T04:52:45.606Z,3.33
2019-03-01T04:55:14.413Z,3.40
2019-03-01T04:57:41.682Z,4.13
2019-03-01T05:00:10.796Z,3.10
2019-03-01T05:02:38.069Z,3.80
2019-03-01T05:05:05.786Z,3.70
2019-03-01T05:07:33.075Z,4.50
2019-03-01T05:10:00.417Z,4.00
2019-03-01T05:12:27.691Z,3.30
2019-03-01T05:14:54.939Z,3.60
2019-03-01T05:17:22.214Z,4.23
2019-03-01T05:19:49.712Z,3.47
2019-03-01T05:22:16.985Z,3.77
2019-03-01T05:24:44.233Z,3.83
2019-03-01T05:27:11.480Z,3.90
2019-03-01T05:29:38.741Z,4.00
2019-03-01T05:32:06.011Z,3.90
2019-03-01T05:34:33.286Z,4.10
2019-03-01T05:37:00.529Z,3.57
2019-03-01T05:39:27.801Z,3.53
2019-03-01T05:41:55.046Z,4.90
2019-03-01T05:44:22.336Z,3.63
2019-03-01T05:46:49.827Z,4.70
2019-03-01T05:49:17.096Z,4.80
2019-03-01T05:51:44.367Z,4.57
2019-03-01T05:54:11.651Z,4.43
2019-03-01T05:56:38.884Z,3.87
2019-03-01T05:59:13.465Z,5.13
2019-03-01T06:01:42.315Z,4.50
2019-03-01T06:04:11.123Z,4.53
2019-03-01T06:06:45.582Z,4.33
2019-03-01T06:09:22.570Z,4.90
2019-03-01T06:11:51.418Z,5.07
2019-03-01T06:14:36.502Z,4.90
2019-03-01T06:17:17.126Z,4.90
2019-03-01T06:19:46.000Z,4.20
2019-03-01T06:22:23.787Z,4.60
2019-03-01T06:25:09.166Z,4.70
2019-03-01T06:27:54.599Z,5.20
2019-03-01T06:30:23.486Z,5.63
2019-03-01T06:33:04.298Z,4.73
2019-03-01T06:35:36.057Z,6.07
2019-03-01T06:38:08.738Z,4.93
2019-03-01T06:40:55.714Z,4.90
2019-03-01T06:43:36.351Z,5.03
2019-03-01T06:46:08.227Z,4.60
2019-03-01T06:48:37.114Z,5.30
2019-03-01T06:51:06.162Z,4.60
2019-03-01T06:53:33.425Z,5.50
2019-03-01T06:56:00.814Z,5.17
2019-03-01T06:58:29.234Z,4.50
2019-03-01T07:00:58.225Z,5.20
2019-03-01T07:03:25.489Z,4.53
2019-03-01T07:05:52.764Z,4.90
2019-03-01T07:08:20.012Z,6.17
2019-03-01T07:10:47.278Z,4.83
2019-03-01T07:13:14.564Z,5.03
2019-03-01T07:15:41.799Z,5.77
2019-03-01T07:18:09.323Z,4.30
2019-03-01T07:20:36.571Z,6.50
2019-03-01T07:23:03.848Z,4.30
2019-03-01T07:25:31.119Z,5.43
2019-03-01T07:27:58.357Z,5.00
2019-03-01T07:30:25.635Z,4.37
2019-03-01T07:32:52.882Z,5.47
2019-03-01T07:35:20.146Z,4.83
2019-03-01T07:37:47.675Z,4.70
2019-03-01T07:40:15.016Z,4.40
2019-03-01T07:42:42.266Z,4.50
2019-03-01T07:45:10.556Z,4.60
2019-03-01T07:47:37.826Z,4.23
2019-03-01T07:50:06.634Z,4.80
2019-03-01T07:52:33.874Z,4.00
2019-03-01T07:55:01.117Z,4.10
2019-03-01T07:57:28.389Z,4.47
2019-03-01T07:59:55.638Z,4.17
2019-03-01T08:02:22.906Z,4.83
2019-03-01T08:04:50.191Z,4.40
2019-03-01T08:07:20.510Z,4.07
2019-03-01T08:09:46.472Z,4.37
2019-03-01T08:12:13.712Z,3.40
2019-03-01T08:14:40.982Z,3.27
2019-03-01T08:17:08.496Z,3.87
2019-03-01T08:19:35.766Z,3.53
2019-03-01T08:22:03.010Z,3.73
2019-03-01T08:24:30.278Z,3.37
2019-03-01T08:26:57.555Z,3.27
2019-03-01T08:29:24.826Z,3.00
2019-03-01T08:31:52.720Z,2.80
2019-03-01T08:34:21.070Z,2.73
2019-03-01T08:36:48.310Z,2.60
2019-03-01T08:39:15.589Z,2.80
2019-03-01T08:41:43.116Z,3.30
2019-03-01T08:44:10.386Z,2.17
2019-03-01T08:46:37.631Z,2.97
2019-03-01T08:49:06.731Z,3.30
2019-03-01T08:51:33.904Z,3.00
2019-03-01T08:54:01.142Z,2.37
2019-03-01T08:56:28.674Z,2.20
2019-03-01T08:58:55.930Z,2.70
2019-03-01T09:01:24.466Z,3.17
2019-03-01T09:03:58.923Z,2.70
2019-03-01T09:06:26.199Z,2.53
2019-03-01T09:08:53.472Z,2.60
2019-03-01T09:11:20.710Z,2.80
2019-03-01T09:13:47.979Z,2.47
2019-03-01T09:16:15.491Z,2.80
2019-03-01T09:18:42.766Z,3.00
2019-03-01T09:21:12.943Z,2.70
2019-03-01T09:23:39.631Z,2.73
2019-03-01T09:26:07.042Z,3.00
2019-03-01T09:28:38.366Z,3.20
2019-03-01T09:31:03.601Z,3.13
2019-03-01T09:33:30.835Z,3.27
2019-03-01T09:36:05.715Z,3.27
2019-03-01T09:38:32.950Z,3.20
2019-03-01T09:41:01.274Z,3.50
2019-03-01T09:43:29.261Z,3.90
2019-03-01T09:45:56.528Z,4.80
2019-03-01T09:48:23.775Z,4.83
2019-03-01T09:50:51.299Z,5.30
2019-03-01T09:53:18.541Z,5.60
2019-03-01T09:55:45.805Z,5.27
2019-03-01T09:58:13.080Z,6.20
2019-03-01T10:00:44.779Z,6.80
2019-03-01T10:03:12.262Z,5.97
2019-03-01T10:05:39.526Z,7.80
2019-03-01T10:08:07.755Z,8.17
2019-03-01T10:10:35.129Z,7.97
2019-03-01T10:13:02.395Z,8.40
2019-03-01T10:15:29.674Z,7.90
2019-03-01T10:17:56.944Z,8.70
2019-03-01T10:20:26.089Z,10.80
2019-03-01T10:22:53.518Z,10.50
2019-03-01T10:25:20.919Z,10.60
2019-03-01T10:27:48.514Z,9.10
2019-03-01T10:30:19.491Z,10.53
2019-03-01T10:32:46.790Z,10.87
2019-03-01T10:35:14.865Z,10.87
2019-03-01T10:37:42.116Z,12.87
2019-03-01T10:40:12.982Z,13.70
2019-03-01T10:42:40.261Z,13.67
2019-03-01T10:45:09.086Z,12.60
2019-03-01T10:47:36.342Z,11.90
2019-03-01T10:50:04.690Z,12.87
2019-03-01T10:52:32.003Z,14.73
2019-03-01T10:54:59.251Z,13.33
2019-03-01T10:57:26.764Z,13.10
2019-03-01T10:59:54.110Z,13.70
2019-03-01T11:02:21.385Z,12.70
2019-03-01T11:04:48.669Z,14.63
2019-03-01T11:07:16.016Z,14.87
2019-03-01T11:09:43.296Z,14.60
2019-03-01T11:12:10.582Z,15.17
2019-03-01T11:14:37.846Z,15.37
2019-03-01T11:17:05.465Z,15.90
2019-03-01T11:19:33.158Z,18.20
2019-03-01T11:22:00.502Z,19.17
2019-03-01T11:24:27.751Z,18.80
2019-03-01T11:26:55.079Z,20.27
2019-03-01T11:29:22.329Z,20.53
2019-03-01T11:31:49.619Z,21.23
2019-03-01T11:34:16.968Z,23.57
2019-03-01T11:36:44.219Z,23.20
2019-03-01T11:39:11.972Z,20.80
2019-03-01T11:41:39.295Z,23.10
2019-03-01T11:44:06.561Z,21.13
2019-03-01T11:46:33.814Z,24.30
2019-03-01T11:49:01.340Z,21.87
2019-03-01T11:51:28.742Z,22.20
2019-03-01T11:53:56.284Z,22.40
2019-03-01T11:56:23.774Z,23.70
2019-03-01T11:58:51.322Z,27.83
2019-03-01T12:01:18.574Z,28.33
2019-03-01T12:03:45.846Z,29.67
2019-03-01T12:06:13.379Z,28.00
2019-03-01T12:08:40.750Z,33.47
2019-03-01T12:11:07.991Z,34.93
2019-03-01T12:13:35.278Z,31.37
2019-03-01T12:16:02.554Z,31.70
2019-03-01T12:18:30.143Z,33.47
2019-03-01T12:20:57.658Z,35.87
2019-03-01T12:23:24.950Z,36.37
2019-03-01T12:25:52.456Z,35.17
2019-03-01T12:28:19.719Z,34.67
2019-03-01T12:30:47.243Z,36.70
2019-03-01T12:33:14.490Z,34.40
2019-03-01T12:35:41.768Z,35.90
2019-03-01T12:38:09.304Z,36.73
2019-03-01T12:40:36.579Z,38.10
2019-03-01T12:43:03.901Z,35.00
2019-03-01T12:45:31.170Z,37.90
2019-03-01T12:47:58.438Z,40.23
2019-03-01T12:50:25.723Z,42.83
2019-03-01T12:52:52.974Z,47.40
2019-03-01T12:55:23.610Z,46.50
2019-03-01T12:57:50.859Z,43.17
2019-03-01T13:00:19.419Z,46.73
2019-03-01T13:02:46.747Z,47.30
2019-03-01T13:05:14.196Z,47.53
2019-03-01T13:07:41.445Z,44.33
2019-03-01T13:10:10.267Z,48.50
2019-03-01T13:12:37.550Z,50.97
2019-03-01T13:15:05.298Z,48.80
2019-03-01T13:17:33.731Z,51.07
2019-03-01T13:20:02.551Z,52.60
2019-03-01T13:22:29.889Z,48.87
2019-03-01T13:24:57.169Z,53.30
2019-03-01T13:27:24.698Z,53.17
2019-03-01T13:29:51.958Z,55.40
2019-03-01T13:32:19.969Z,56.87
2019-03-01T13:34:49.516Z,55.20
2019-03-01T13:37:20.119Z,57.33
2019-03-01T13:39:48.666Z,52.20
2019-03-01T13:42:16.321Z,50.77
2019-03-01T13:44:43.929Z,49.83
2019-03-01T13:47:11.220Z,50.20
2019-03-01T13:49:38.818Z,49.40
2019-03-01T13:52:06.419Z,50.30
2019-03-01T13:54:34.246Z,46.73
2019-03-01T13:57:01.866Z,44.67
2019-03-01T13:59:29.405Z,47.37
2019-03-01T14:01:56.819Z,44.00
2019-03-01T14:04:24.124Z,44.10
2019-03-01T14:06:51.519Z,44.37
2019-03-01T14:09:18.822Z,41.80
2019-03-01T14:11:46.322Z,39.70
2019-03-01T14:14:14.034Z,40.60
2019-03-01T14:16:41.891Z,43.57
2019-03-01T14:19:09.314Z,39.20
2019-03-01T14:21:36.738Z,42.70
2019-03-01T14:24:04.144Z,41.90
2019-03-01T14:26:31.663Z,40.93
2019-03-01T14:28:58.942Z,42.53
2019-03-01T14:31:26.448Z,40.73
2019-03-01T14:33:53.732Z,38.70
2019-03-01T14:36:21.237Z,41.40
2019-03-01T14:38:48.530Z,40.37
2019-03-01T14:41:15.801Z,40.70
2019-03-01T14:43:43.081Z,40.03
2019-03-01T14:46:10.340Z,39.07
2019-03-01T14:48:37.695Z,40.10
2019-03-01T14:51:07.022Z,39.73
2019-03-01T14:53:35.909Z,38.53
2019-03-01T14:56:04.798Z,37.57
2019-03-01T14:58:33.894Z,38.87
2019-03-01T15:01:08.461Z,39.27
2019-03-01T15:03:36.616Z,36.43
2019-03-01T15:06:04.376Z,38.47
2019-03-01T15:08:31.626Z,35.20
2019-03-01T15:11:04.280Z,35.90
2019-03-01T15:13:34.707Z,35.90
2019-03-01T15:16:04.847Z,33.47
2019-03-01T15:18:32.309Z,36.07
2019-03-01T15:21:02.313Z,36.20
2019-03-01T15:23:28.303Z,36.73
2019-03-01T15:25:55.586Z,38.07
2019-03-01T15:28:22.835Z,35.47
2019-03-01T15:30:50.113Z,35.53
2019-03-01T15:33:17.654Z,33.57
2019-03-01T15:35:44.957Z,35.30
2019-03-01T15:38:12.527Z,32.80
2019-03-01T15:40:39.809Z,37.10
2019-03-01T15:43:09.046Z,33.80
2019-03-01T15:45:36.725Z,33.00
2019-03-01T15:48:05.319Z,35.03
2019-03-01T15:50:32.680Z,32.27
2019-03-01T15:52:59.958Z,34.40
2019-03-01T15:55:27.211Z,34.00
2019-03-01T15:57:56.470Z,34.43
2019-03-01T16:00:25.673Z,35.53
2019-03-01T16:02:53.346Z,35.30
2019-03-01T16:05:21.283Z,36.50
2019-03-01T16:07:48.812Z,34.10
2019-03-01T16:10:19.610Z,32.20
2019-03-01T16:12:47.234Z,40.57
2019-03-01T16:15:15.442Z,35.60
2019-03-01T16:17:42.790Z,34.63
2019-03-01T16:20:11.579Z,36.90
2019-03-01T16:22:38.875Z,35.53
2019-03-01T16:25:08.023Z,33.53
2019-03-01T16:27:35.276Z,33.53
2019-03-01T16:30:02.804Z,30.83
2019-03-01T16:32:30.173Z,30.30
2019-03-01T16:34:57.754Z,29.97
2019-03-01T16:37:26.117Z,32.57
2019-03-01T16:39:56.259Z,31.00
2019-03-01T16:42:23.117Z,29.90
2019-03-01T16:44:50.366Z,27.67
2019-03-01T16:47:17.662Z,28.10
2019-03-01T16:49:44.942Z,26.00
2019-03-01T16:52:12.218Z,25.13
2019-03-01T16:54:39.463Z,25.40
2019-03-01T16:57:06.744Z,26.60
2019-03-01T16:59:34.032Z,26.20
2019-03-01T17:02:06.052Z,31.10
2019-03-01T17:04:30.321Z,26.83
2019-03-01T17:06:57.586Z,29.07
2019-03-01T17:09:24.872Z,28.10
2019-03-01T17:11:52.120Z,27.03
2019-03-01T17:14:19.397Z,28.20
2019-03-01T17:16:46.674Z,27.40
2019-03-01T17:19:14.229Z,28.20
2019-03-01T17:21:41.582Z,25.57
2019-03-01T17:24:12.276Z,27.90
2019-03-01T17:26:39.073Z,29.95
2019-03-01T17:29:06.709Z,27.53
2019-03-01T17:31:33.982Z,25.40
2019-03-01T17:34:01.233Z,25.77
2019-03-01T17:36:28.762Z,25.27
2019-03-01T17:38:56.302Z,26.07
2019-03-01T17:41:23.586Z,23.23
2019-03-01T17:43:50.846Z,22.57
2019-03-01T17:46:18.114Z,23.23
2019-03-01T17:48:45.391Z,21.77
2019-03-01T17:51:12.923Z,21.60
2019-03-01T17:53:43.109Z,22.30
2019-03-01T17:56:09.192Z,22.52
2019-03-01T17:58:36.438Z,22.67
2019-03-01T18:01:03.916Z,24.10
2019-03-01T18:03:31.185Z,19.33
2019-03-01T18:05:58.487Z,18.33
2019-03-01T18:08:25.988Z,18.23
2019-03-01T18:10:53.272Z,18.30
2019-03-01T18:13:20.615Z,19.30
2019-03-01T18:15:48.530Z,18.13
2019-03-01T18:18:17.189Z,15.60
2019-03-01T18:20:44.538Z,18.47
2019-03-01T18:23:12.084Z,13.00
2019-03-01T18:25:39.334Z,14.90
2019-03-01T18:28:06.581Z,11.30
2019-03-01T18:30:34.389Z,11.40
2019-03-01T18:33:01.938Z,10.63
2019-03-01T18:35:29.233Z,10.10
2019-03-01T18:37:56.505Z,11.60
2019-03-01T18:40:24.018Z,10.53
2019-03-01T18:42:51.292Z,9.20
2019-03-01T18:45:20.085Z,10.10
2019-03-01T18:47:47.367Z,9.27
2019-03-01T18:50:16.443Z,11.77
2019-03-01T18:52:43.693Z,10.70
2019-03-01T18:55:13.722Z,10.97
2019-03-01T18:57:40.216Z,12.60
2019-03-01T19:00:17.857Z,10.97
2019-03-01T19:02:45.147Z,12.77
2019-03-01T19:05:12.402Z,14.00
2019-03-01T19:07:39.938Z,14.53
2019-03-01T19:10:08.754Z,13.37
2019-03-01T19:12:36.039Z,18.40
2019-03-01T19:15:03.652Z,21.43
2019-03-01T19:17:30.991Z,19.17
2019-03-01T19:19:58.284Z,18.53
2019-03-01T19:22:28.282Z,20.23
2019-03-01T19:24:54.755Z,21.23
2019-03-01T19:27:22.331Z,19.00
2019-03-01T19:29:49.590Z,23.70
2019-03-01T19:32:17.118Z,21.60
2019-03-01T19:34:44.402Z,22.57
2019-03-01T19:37:13.361Z,21.70
2019-03-01T19:39:40.895Z,20.70
2019-03-01T19:42:08.450Z,19.23
2019-03-01T19:44:35.963Z,19.67
2019-03-01T19:47:03.496Z,17.20
2019-03-01T19:49:31.045Z,17.73
2019-03-01T19:51:58.550Z,17.43
2019-03-01T19:54:26.070Z,19.80
2019-03-01T19:56:53.367Z,20.70
2019-03-01T19:59:20.623Z,20.53
2019-03-01T20:01:49.415Z,19.97
2019-03-01T20:04:17.780Z,18.83
2019-03-01T20:06:46.216Z,21.37
2019-03-01T20:09:13.463Z,18.90
2019-03-01T20:11:40.738Z,20.50
2019-03-01T20:14:07.994Z,19.80
2019-03-01T20:16:35.266Z,20.53
2019-03-01T20:19:02.519Z,22.37
2019-03-01T20:21:29.798Z,21.60
2019-03-01T20:23:57.046Z,21.73
2019-03-01T20:26:26.701Z,21.00
2019-03-01T20:28:53.363Z,20.63
2019-03-01T20:31:20.665Z,18.93
2019-03-01T20:33:48.190Z,21.40
2019-03-01T20:36:17.605Z,20.77
2019-03-01T20:38:44.472Z,21.63
2019-03-01T20:41:11.761Z,20.20
2019-03-01T20:43:41.827Z,20.00
2019-03-01T20:46:08.095Z,19.80
2019-03-01T20:48:35.446Z,19.87
2019-03-01T20:51:02.705Z,19.43
2019-03-01T20:53:30.050Z,21.60
2019-03-01T20:55:57.305Z,21.60
2019-03-01T20:58:24.587Z,20.27
2019-03-01T21:00:51.844Z,22.70
2019-03-01T21:03:20.277Z,20.90
2019-03-01T21:05:47.635Z,23.00
2019-03-01T21:08:14.886Z,20.30
2019-03-01T21:10:42.133Z,21.90
2019-03-01T21:13:12.520Z,20.30
2019-03-01T21:15:38.675Z,22.20
2019-03-01T21:18:07.327Z,24.20
2019-03-01T21:20:35.469Z,21.57
2019-03-01T21:23:02.867Z,22.40
2019-03-01T21:25:30.116Z,21.47
2019-03-01T21:28:00.615Z,21.00
2019-03-01T21:30:29.844Z,20.50
2019-03-01T21:32:57.118Z,22.53
2019-03-01T21:35:24.442Z,21.37
2019-03-01T21:37:52.106Z,22.80
2019-03-01T21:40:19.358Z,22.13
2019-03-01T21:42:46.607Z,23.23
2019-03-01T21:45:17.773Z,24.53
2019-03-01T21:47:44.637Z,22.70
2019-03-01T21:50:13.450Z,24.43
2019-03-01T21:52:40.739Z,23.33
2019-03-01T21:55:11.633Z,23.77
2019-03-01T21:57:38.922Z,21.13
2019-03-01T22:00:13.243Z,24.47
2019-03-01T22:02:40.493Z,22.73
2019-03-01T22:05:10.274Z,24.73
2019-03-01T22:07:38.415Z,25.03
2019-03-01T22:10:07.413Z,28.63
2019-03-01T22:12:34.666Z,26.67
2019-03-01T22:15:01.950Z,26.93
2019-03-01T22:17:29.269Z,26.67
2019-03-01T22:19:56.558Z,24.47
2019-03-01T22:22:23.810Z,26.03
2019-03-01T22:24:51.579Z,27.20
2019-03-01T22:27:21.512Z,24.97
2019-03-01T22:29:48.483Z,25.73
2019-03-01T22:32:15.764Z,25.37
2019-03-01T22:34:43.046Z,29.53
2019-03-01T22:37:10.314Z,27.10
2019-03-01T22:39:37.566Z,27.10
2019-03-01T22:42:05.102Z,27.37
2019-03-01T22:44:33.338Z,30.77
2019-03-01T22:47:01.615Z,28.00
2019-03-01T22:49:31.817Z,28.90
2019-03-01T22:51:57.899Z,27.47
2019-03-01T22:54:25.164Z,25.43
2019-03-01T22:56:52.414Z,28.80
2019-03-01T22:59:19.971Z,28.77
2019-03-01T23:01:47.298Z,26.43
2019-03-01T23:04:14.551Z,31.03
2019-03-01T23:06:42.100Z,27.63
2019-03-01T23:09:11.589Z,28.03
2019-03-01T23:11:39.008Z,27.30
2019-03-01T23:14:06.281Z,28.10
2019-03-01T23:16:33.624Z,30.40
2019-03-01T23:19:00.969Z,26.70
2019-03-01T23:21:28.219Z,26.10
2019-03-01T23:23:55.803Z,29.03
2019-03-01T23:26:24.471Z,30.73
2019-03-01T23:28:51.754Z,28.30
2019-03-01T23:31:19.025Z,26.87
2019-03-01T23:33:46.531Z,26.80
2019-03-01T23:36:13.818Z,26.40
2019-03-01T23:38:41.121Z,27.37
2019-03-01T23:41:11.488Z,26.17
2019-03-01T23:43:37.396Z,24.30
2019-03-01T23:46:04.903Z,26.60
2019-03-01T23:48:32.443Z,26.90
2019-03-01T23:50:59.695Z,26.73
2019-03-01T23:53:27.513Z,24.53
2019-03-01T23:55:55.749Z,25.27
2019-03-01T23:58:23.134Z,25.97
